This is the latest recevied weather packets stored in our database for station/object JH1LWU-13. If no packets are shown the sender has not sent any weather packets the latest 10 day(s).
| Time | Temp. | Humidity | Pressure | Rain* | Wind** | Luminosity | Snow |
|---|---|---|---|---|---|---|---|
| 1787753742 | 30° C | 64% | 1005 hPa | - | - | - | - |
| 1787751941 | 32.22° C | 57% | 1007 hPa | - | - | - | - |
| 1787750140 | 32.78° C | 57% | 1005 hPa | - | - | - | - |
| 1787748339 | 29.44° C | 68% | 1007 hPa | - | - | - | - |
| 1787746538 | 28.33° C | 71% | 1006 hPa | - | - | - | - |
| 1787744737 | 28.33° C | 70% | 1006 hPa | - | - | - | - |
| 1787742936 | 28.89° C | 69% | 1005 hPa | - | - | - | - |
| 1787741135 | 28.89° C | 70% | 1006 hPa | - | - | - | - |
| 1787739334 | 28.89° C | 69% | 1006 hPa | - | - | - | - |
| 1787737533 | 29.44° C | 67% | 1005 hPa | - | - | - | - |
| 1787735732 | 29.44° C | 67% | 1005 hPa | - | - | - | - |
| 1787733931 | 30° C | 65% | 1005 hPa | - | - | - | - |
| 1787732130 | 30.56° C | 63% | 1005 hPa | - | - | - | - |
| 1787730329 | 31.11° C | 62% | 1005 hPa | - | - | - | - |
| 1787728528 | 31.11° C | 60% | 1003 hPa | - | - | - | - |
| 1787726727 | 32.22° C | 58% | 1005 hPa | - | - | - | - |
| 1787724926 | 32.78° C | 56% | 1004 hPa | - | - | - | - |
| 1787723125 | 32.78° C | 56% | 1005 hPa | - | - | - | - |
| 1787721324 | 33.89° C | 53% | 1004 hPa | - | - | - | - |
| 1787719523 | 33.89° C | 52% | 1005 hPa | - | - | - | - |
| 1787717722 | 34.44° C | 50% | 1005 hPa | - | - | - | - |
| 1787715921 | 35° C | 49% | 1005 hPa | - | - | - | - |
| 1787714120 | 35° C | 50% | 1005 hPa | - | - | - | - |
| 1787712319 | 35.56° C | 50% | 1005 hPa | - | - | - | - |
| 1787710518 | 35.56° C | 48% | 1004 hPa | - | - | - | - |
* Rain since midnight (hover to see other rain measurements)
** Current wind speed in m/s (hover to see current wind gust speed)